Latest Coastal Weather Observations for Port Fairy

IDV60701

Issued at 1:12 am EST Thursday 3 September 2026 (issued every 10 minutes, with the page automatically refreshed every 10 minutes)

About coastal observations | Map of coastal stations | Coastal observations for VIC | Marine services | Other Formats
Station Details ID: 090175 Name: PORT FAIRY AWS Lat: -38.39 Lon: 142.23 Height: 10.0 m
Data from the previous 72 hours. | See also: Recent months at Port Fairy
Date/Time
EST
Wind Sea
Height
m
Swell Vis
km
Cloud Weather Temp
°C
Press
MSL
hPa
Rain since
9am
mm
Dir  Spd
kts
Gust
kts
Height
m
Period
s
Dir
03/01:00am NNW 8 13 - - - - - - - 10.1 1008.8 0.0
03/12:30am NNW 8 13 - - - - - - - 10.4 1008.9 0.0
03/12:00am NNW 10 14 - - - - - - - 10.6 1009.4 0.0
 
Date/Time
EST
Wind Sea
Height
m
Swell Vis
km
Cloud Weather Temp
°C
Press
MSL
hPa
Rain since
9am
mm
Dir  Spd
kts
Gust
kts
Height
m
Period
s
Dir
02/11:30pm NNW 8 12 - - - - - - - 10.3 1009.8 0.0
02/11:00pm NNW 9 15 - - - - - - - 10.4 1010.0 0.0
02/10:30pm NNW 11 17 - - - - - - - 10.6 1010.4 0.0
02/10:00pm NNW 10 16 - - - - - - - 10.6 1010.5 0.0
02/09:30pm NNW 7 12 - - - - - - - 10.9 1010.7 0.0
02/09:00pm NNW 7 12 - - - - - - - 11.1 1011.0 0.0
02/08:30pm NW 9 14 - - - - - - - 11.7 1011.0 0.0
02/08:00pm NNW 7 14 - - - - - - - 11.8 1010.9 0.0
02/07:30pm NNW 7 13 - - - - - - - 11.8 1010.8 0.0
02/07:00pm NNW 7 10 - - - - - - - 12.1 1010.7 0.0
02/06:30pm NNW 6 10 - - - - - - - 12.2 1010.7 0.0
02/06:00pm NW 8 14 - - - - - - - 12.5 1010.8 0.0
02/05:30pm NW 8 17 - - - - - - - 13.0 1010.7 0.0
02/05:00pm NW 5 9 - - - - - - - 13.5 1010.6 0.0
02/04:30pm NW 7 13 - - - - - - - 13.9 1010.7 0.0
02/04:00pm NNW 9 14 - - - - - - - 14.2 1011.0 0.0
02/03:30pm NW 8 12 - - - - - - - 14.8 1011.2 0.0
02/03:00pm NW 8 12 - - - - - - - 14.0 1011.6 0.0
02/02:30pm NW 9 14 - - - - - - - 14.6 1011.7 0.0
02/02:00pm NW 8 13 - - - - - - - 14.2 1012.1 0.0
02/01:30pm NW 10 17 - - - - - - - 14.1 1012.6 0.0
02/01:00pm NW 9 13 - - - - - - - 14.4 1012.8 0.0
02/12:30pm WNW 9 15 - - - - - - - 13.6 1013.2 0.0
02/12:00pm NW 11 17 - - - - - - - 13.2 1013.6 0.0
02/11:30am NW 10 16 - - - - - - - 13.5 1013.9 0.0
02/11:00am NW 8 14 - - - - - - - 13.0 1014.3 0.0
02/10:30am NW 8 13 - - - - - - - 13.0 1014.3 0.0
02/10:00am NW 8 13 - - - - - - - 12.3 1014.3 0.0
02/09:30am NW 8 13 - - - - - - - 12.2 1014.3 0.0
02/09:00am NNW 8 13 - - - - - - - 11.6 1014.5 7.2
02/08:30am NNW 6 9 - - - - - - - 11.0 1014.5 7.2
02/08:00am NNW 6 9 - - - - - - - 10.4 1014.4 7.2
02/07:30am NW 6 8 - - - - - - - 10.0 1014.2 7.2
02/07:00am NW 6 9 - - - - - - - 9.7 1013.9 7.2
02/06:30am NNW 5 7 - - - - - - - 9.2 1013.6 7.2
02/06:00am NNW 5 8 - - - - - - - 8.8 1013.6 7.2
02/05:30am NNW 5 7 - - - - - - - 8.6 1013.7 7.2
02/05:00am NNW 4 7 - - - - - - - 8.7 1013.6 7.2
02/04:30am NNW 5 7 - - - - - - - 9.4 1013.5 7.2
02/04:00am NW 5 8 - - - - - - - 10.5 1013.4 7.2
02/03:30am W 9 14 - - - - - - - 10.9 1013.4 7.2
02/03:00am W 9 14 - - - - - - - 11.2 1013.5 7.2
02/02:30am W 8 13 - - - - - - - 10.8 1013.7 7.2
02/02:00am W 9 13 - - - - - - - 10.7 1013.8 7.2
02/01:30am WSW 11 15 - - - - - - - 11.1 1013.8 7.2
02/01:00am WSW 11 17 - - - - - - - 11.3 1013.8 7.2
02/12:30am W 11 17 - - - - - - - 11.3 1013.6 7.2
02/12:00am WSW 12 16 - - - - - - - 11.5 1013.3 7.2
 
Date/Time
EST
Wind Sea
Height
m
Swell Vis
km
Cloud Weather Temp
°C
Press
MSL
hPa
Rain since
9am
mm
Dir  Spd
kts
Gust
kts
Height
m
Period
s
Dir
01/11:30pm WSW 11 16 - - - - - - - 11.6 1013.6 7.2
01/11:00pm WSW 11 16 - - - - - - - 11.6 1013.4 7.2
01/10:30pm WSW 12 16 - - - - - - - 11.8 1013.1 7.2
01/10:00pm WSW 13 16 - - - - - - - 12.4 1013.1 7.2
01/09:30pm W 8 13 - - - - - - - 12.7 1012.5 7.0
01/09:00pm WSW 12 17 - - - - - - Recent precip. 12.8 1012.2 7.0
01/08:30pm NW 9 19 - - - - - - - 13.7 1011.7 6.8
01/08:00pm NNW 11 15 - - - - - - - 13.6 1011.5 6.8
01/07:30pm NNW 11 17 - - - - - - - 13.6 1011.2 6.6
01/07:00pm NNW 9 16 - - - - - - - 13.4 1011.1 6.4
01/06:30pm NW 9 15 - - - - - - - 13.5 1011.1 6.2
01/06:00pm NNW 7 11 - - - - - - Rain 13.8 1010.8 3.4
01/05:30pm N 9 13 - - - - - - - 13.8 1010.2 2.4
01/05:00pm NNW 9 17 - - - - - - - 13.7 1010.7 2.2
01/04:30pm N 8 13 - - - - - - - 13.9 1010.9 1.8
01/04:00pm NW 10 15 - - - - - - - 14.8 1011.5 0.6
01/03:30pm WNW 14 23 - - - - - - - 16.6 1011.6 0.0
01/03:00pm NW 9 14 - - - - - - - 18.0 1011.5 0.0
01/02:30pm NNW 10 18 - - - - - - - 18.1 1011.3 0.0
01/02:00pm NNW 11 19 - - - - - - - 18.1 1011.5 0.0
01/01:30pm NNW 12 18 - - - - - - - 18.3 1011.5 0.0
01/01:00pm NNW 11 19 - - - - - - - 17.6 1011.9 0.0
01/12:30pm NNW 13 28 - - - - - - - 17.7 1012.2 0.0
01/12:00pm NNW 13 21 - - - - - - - 17.6 1013.0 0.0
01/11:30am NNW 14 23 - - - - - - - 16.9 1013.4 0.0
01/11:00am NNW 12 22 - - - - - - - 16.9 1013.7 0.0
01/10:30am NNW 13 23 - - - - - - - 17.1 1014.0 0.0
01/10:21am NNW 14 27 - - - - - - - 17.1 1014.2 0.0
01/10:00am NNW 15 25 - - - - - - - 17.9 1014.5 0.0
01/09:58am NNW 15 25 - - - - - - - 18.3 1014.5 0.0
01/09:30am NNW 13 22 - - - - - - - 16.6 1014.8 0.0
01/09:00am N 8 13 - - - - - - - 15.1 1015.7 0.0
01/08:30am N 8 11 - - - - - - - 13.5 1016.2 0.0
01/08:00am N 8 12 - - - - - - - 12.1 1016.3 0.0
01/07:30am N 8 12 - - - - - - - 10.9 1016.5 0.0
01/07:00am N 8 12 - - - - - - - 10.6 1016.8 0.0
01/06:30am N 9 13 - - - - - - - 10.7 1016.9 0.0
01/06:00am N 8 11 - - - - - - - 10.1 1017.3 0.0
01/05:30am N 7 10 - - - - - - - 9.4 1017.9 0.0
01/05:00am N 7 9 - - - - - - - 8.7 1018.4 0.0
01/04:30am N 6 8 - - - - - - - 8.2 1018.8 0.0
01/04:00am N 6 9 - - - - - - - 8.8 1019.0 0.0
01/03:30am N 6 8 - - - - - - - 8.9 1019.4 0.0
01/03:00am N 7 9 - - - - - - - 8.6 1020.2 0.0
01/02:30am N 6 8 - - - - - - - 8.7 1020.9 0.0
01/02:00am N 6 9 - - - - - - - 8.9 1021.5 0.0
01/01:30am N 5 7 - - - - - - - 8.6 1021.7 0.0
01/01:00am N 5 8 - - - - - - - 9.0 1021.9 0.0
01/12:30am N 5 7 - - - - - - - 8.4 1022.4 0.0
01/12:00am N 3 5 - - - - - - - 7.7 1022.7 0.0
 
Date/Time
EST
Wind Sea
Height
m
Swell Vis
km
Cloud Weather Temp
°C
Press
MSL
hPa
Rain since
9am
mm
Dir  Spd
kts
Gust
kts
Height
m
Period
s
Dir
31/11:30pm N 5 6 - - - - - - - 8.3 1023.2 0.0
31/11:00pm N 2 5 - - - - - - - 8.6 1024.0 0.0
31/10:30pm N 5 7 - - - - - - - 9.7 1024.3 0.0
31/10:00pm N 6 8 - - - - - - - 10.4 1024.5 0.0
31/09:30pm N 5 6 - - - - - - - 10.9 1024.8 0.0
31/09:00pm N 4 5 - - - - - - - 11.3 1025.2 0.0
31/08:30pm NNE 3 5 - - - - - - - 11.3 1025.2 0.0
31/08:00pm NE 3 4 - - - - - - - 12.3 1025.4 0.0
31/07:30pm ENE 3 4 - - - - - - - 12.8 1025.5 0.0
31/07:00pm ENE 3 4 - - - - - - - 13.0 1025.7 0.0
31/06:30pm E 4 5 - - - - - - - 13.3 1025.9 0.0
31/06:00pm ENE 3 5 - - - - - - - 13.9 1026.2 0.0
31/05:30pm E 3 5 - - - - - - - 14.6 1026.1 0.0
31/05:00pm E 4 5 - - - - - - - 15.2 1026.3 0.0
31/04:30pm ESE 4 6 - - - - - - - 15.6 1026.7 0.0
31/04:00pm SE 5 7 - - - - - - - 16.3 1027.2 0.0
31/03:30pm SE 4 6 - - - - - - - 17.0 1027.5 0.0
31/03:00pm SE 3 5 - - - - - - - 17.9 1027.9 0.0
31/02:30pm N 1 3 - - - - - - - 19.1 1028.1 0.0
31/02:00pm NNW 3 5 - - - - - - - 18.1 1028.5 0.0
31/01:30pm N 4 7 - - - - - - - 17.4 1029.3 0.0
31/01:00pm NNE 5 8 - - - - - - - 16.1 1029.8 0.0
31/12:30pm N 5 7 - - - - - - - 15.5 1030.4 0.0
31/12:00pm NNE 5 8 - - - - - - - 14.4 1031.0 0.0
31/11:30am NE 5 8 - - - - - - - 13.5 1031.4 0.0
31/11:00am NE 5 10 - - - - - - - 13.0 1031.8 0.0
31/10:30am NE 4 6 - - - - - - - 12.3 1032.2 0.0
31/10:00am N 3 6 - - - - - - - 11.6 1032.5 0.0
31/09:30am N 3 5 - - - - - - - 11.2 1032.5 0.0
31/09:00am N 3 7 - - - - - - - 11.1 1032.5 0.0
31/08:30am N 2 4 - - - - - - - 10.6 1032.4 0.0
31/08:00am N 3 5 - - - - - - - 10.5 1032.5 0.0
31/07:30am N 2 4 - - - - - - - 10.4 1032.3 0.0
31/07:00am N 1 3 - - - - - - - 10.3 1032.4 0.0
31/06:30am CALM 0 3 - - - - - - - 10.3 1032.3 0.0
31/06:00am NW 1 3 - - - - - - - 10.4 1032.4 0.0
31/05:30am NW 2 3 - - - - - - - 10.3 1032.4 0.0
31/05:00am NW 1 5 - - - - - - - 10.4 1032.2 0.0
31/04:30am WNW 3 7 - - - - - - - 10.4 1032.1 0.0
31/04:00am NW 2 4 - - - - - - - 10.7 1032.1 0.0
31/03:30am NW 2 5 - - - - - - - 10.6 1032.4 0.0
31/03:00am CALM 0 3 - - - - - - - 10.7 1032.7 0.0
31/02:30am WSW 1 4 - - - - - - - 10.8 1032.9 0.0
31/02:00am WNW 1 3 - - - - - - - 10.8 1033.1 0.0
31/01:30am CALM 0 0 - - - - - - - 10.9 1033.2 0.0

Other formats

Comma delimited format used in spreadsheet applications
http://www.bom.gov.au/fwo/IDV60701/IDV60701.94830.axf

JavaScript Object Notation format (JSON) in row-major order
http://www.bom.gov.au/fwo/IDV60701/IDV60701.94830.json

Data quality

Most of these data are generated automatically and are frequently updated. Quality checks on data are not normally performed. It is possible for incorrect values to appear. Refer to information at About Latest Weather Observations and please check the disclaimer before using these data.